Scroll down
FLIGHT INFORMATION
CargoLogicAir

CLA187

At Arrival Gate

EDDP
 EBBR
DATE: 2020-07-11
GATE:  -
GATE DEPARTURE: 15:37
TAKEOFF: 15:41
DATE: 2020-07-11
GATE:  -
LANDING: 16:43
GATE ARRIVAL: 16:54
FLIGHT DATA
Crew: 
Speed: 
914 kph
Altitude: 
30,016 ft
Stage Length: 
543.4 km
Block Time: 
1.4 hrs
Flight Time: 
1 hrs
Fuel Used: 
13,617 kg
Cleared Route: EDDP ODLUN EMBOX POVEL EXOBA ABAMI NEREL AGENI BATTY EBBR
TRACK DATA
50,000 ft 1,000 kts
AIRCRAFT INFO AND CUMULATIVE STATS
Aircraft Type: 
B744ERF
Registration: 
SELCAL: 
QSJL
MSN/LN: 
32870 / 1344
Operator: 
Total Flights: 
2
Total Block Time: 
5.1 hrs
Total Flight Time: 
4.2 hrs
Total Fuel Time: 
45,720 kg
DATALINK LOG | Newest first | Current as of: 2021-06-18 18:58:00
LABEL SEQUENCE CONTENT Dn/Up
QD005116:54 59.6▼ Dn
QC504716:43▼ Dn
GA4134ADVANCED GATE ASSIGNMENTS NOT YET AVAILABLE AT THIS AIRPORT▲ Up
GR4134EBBR 16:41 MAAS YP/UM WCHR/S/C ▼ Dn
QB451415:41▼ Dn
QA411015:37 88.4▼ Dn
2U1746EBBR 111450Z 36008KT 320V020 9999 SCT045 18/10 Q1025 NOSIG▲ Up
2U1746EDDP 111450Z 34008KT 290V360 CAVOK 20/05 Q1023 NOSIG▲ Up
2S1904EDDP EBBR▼ Dn
A31712CLEARED TO EBBR VIA ODLU5N ODLUN Y233 EMBOX L986 POVEL EXOBA ABAMI T884 AGENI T855 BATTY BATY5A. SQUAWK .▲ Up
B31702EDDP EBBR CLA187 H ▼ Dn
Q01258[LINK ACK]▲ Up
Q01257[LINK TEST]▼ Dn


AIRCRAFT HISTORY
FLIGHT DATE FLIGHT NO. ORIGIN DESTINATION CLEARED ROUTE BLOCK TIME FLIGHT TIME FUEL USED PILOT
2020-11-16CLU9951EBBR UUEE EBBR SPI PODEN KENUM ELDAR ANAVI POVEL ALUKA BOKSU ABEZE IRKAL LAFAT SIVRU VTB OGUTA KOLED ADIRU FK UUEE3.7 hrs3.2 hrs70,774 lbZsolt Szivak
2020-07-11CLA187EDDP EBBR EDDP ODLUN EMBOX POVEL EXOBA ABAMI NEREL AGENI BATTY EBBR1.4 hrs1 hrs30,021 lbMarc O'Eland